createdAt,value
2022-08-16T00:00:20.408Z,20.60
2022-08-16T00:01:14.245Z,20.58
2022-08-16T00:02:13.514Z,20.57
2022-08-16T00:03:14.905Z,20.56
2022-08-16T00:04:13.492Z,20.55
2022-08-16T00:05:13.194Z,20.55
2022-08-16T00:06:13.190Z,20.54
2022-08-16T00:07:13.342Z,20.54
2022-08-16T00:08:30.615Z,20.54
2022-08-16T00:09:14.246Z,20.53
2022-08-16T00:10:20.668Z,20.53
2022-08-16T00:11:15.366Z,20.52
2022-08-16T00:12:17.946Z,20.51
2022-08-16T00:13:14.281Z,20.51
2022-08-16T00:14:13.102Z,20.50
2022-08-16T00:15:13.372Z,20.49
2022-08-16T00:17:01.068Z,20.48
2022-08-16T00:17:18.858Z,20.48
2022-08-16T00:18:14.071Z,20.47
2022-08-16T00:19:13.729Z,20.46
2022-08-16T00:20:13.071Z,20.46
2022-08-16T00:21:13.023Z,20.46
2022-08-16T00:22:15.457Z,20.47
2022-08-16T00:23:13.011Z,20.48
2022-08-16T00:24:13.199Z,20.48
2022-08-16T00:25:13.982Z,20.49
2022-08-16T00:26:33.211Z,20.49
2022-08-16T00:27:13.971Z,20.49
2022-08-16T00:28:12.966Z,20.49
2022-08-16T00:29:13.001Z,20.48
2022-08-16T00:30:19.663Z,20.47
2022-08-16T00:31:13.932Z,20.47
2022-08-16T00:32:12.917Z,20.46
2022-08-16T00:33:13.939Z,20.45
2022-08-16T00:34:18.427Z,20.44
2022-08-16T00:35:15.058Z,20.43
2022-08-16T00:36:12.922Z,20.41
2022-08-16T00:37:12.868Z,20.40
2022-08-16T00:38:40.619Z,20.38
2022-08-16T00:39:15.559Z,20.36
2022-08-16T00:40:33.702Z,20.35
2022-08-16T00:41:14.064Z,20.33
2022-08-16T00:42:12.821Z,20.32
2022-08-16T00:43:16.906Z,20.31
2022-08-16T00:44:13.793Z,20.30
2022-08-16T00:45:12.773Z,20.30
2022-08-16T00:46:22.298Z,20.29
2022-08-16T00:47:13.773Z,20.28
2022-08-16T00:48:30.406Z,20.27
2022-08-16T00:49:17.531Z,20.25
2022-08-16T00:50:13.723Z,20.24
2022-08-16T00:51:16.076Z,20.23
2022-08-16T00:52:30.311Z,20.21
2022-08-16T00:53:13.694Z,20.20
2022-08-16T00:54:12.673Z,20.20
2022-08-16T00:55:12.664Z,20.19
2022-08-16T00:56:55.889Z,20.18
2022-08-16T00:57:13.644Z,20.17
2022-08-16T00:58:13.223Z,20.16
2022-08-16T00:59:12.694Z,20.15
2022-08-16T01:00:12.606Z,20.14
2022-08-16T01:01:13.794Z,20.14
2022-08-16T01:02:31.378Z,20.13
2022-08-16T01:03:13.630Z,20.13
2022-08-16T01:04:30.193Z,20.13
2022-08-16T01:05:13.554Z,20.14
2022-08-16T01:06:32.739Z,20.14
2022-08-16T01:07:17.794Z,20.14
2022-08-16T01:08:35.109Z,20.14
2022-08-16T01:09:13.535Z,20.14
2022-08-16T01:10:16.083Z,20.14
2022-08-16T01:11:12.494Z,20.14
2022-08-16T01:12:26.548Z,20.14
2022-08-16T01:13:15.019Z,20.14
2022-08-16T01:14:12.464Z,20.14
2022-08-16T01:15:12.455Z,20.14
2022-08-16T01:16:12.436Z,20.14
2022-08-16T01:17:13.625Z,20.13
2022-08-16T01:18:38.870Z,20.13
2022-08-16T01:19:13.518Z,20.13
2022-08-16T01:20:23.728Z,20.13
2022-08-16T01:21:13.400Z,20.12
2022-08-16T01:22:48.559Z,20.11
2022-08-16T01:23:13.366Z,20.11
2022-08-16T01:24:51.753Z,20.10
2022-08-16T01:25:13.348Z,20.10
2022-08-16T01:26:34.757Z,20.09
2022-08-16T01:27:15.208Z,20.08
2022-08-16T01:28:20.288Z,20.07
2022-08-16T01:29:13.306Z,20.06
2022-08-16T01:30:18.076Z,20.05
2022-08-16T01:31:13.276Z,20.03
2022-08-16T01:32:12.272Z,20.02
2022-08-16T01:33:14.698Z,20.01
2022-08-16T01:34:24.970Z,20.00
2022-08-16T01:35:16.901Z,19.99
2022-08-16T01:36:13.014Z,19.98
2022-08-16T01:37:12.232Z,19.97
2022-08-16T01:38:12.376Z,19.96
2022-08-16T01:39:13.972Z,19.96
2022-08-16T01:40:12.296Z,19.96
2022-08-16T01:41:12.184Z,19.97
2022-08-16T01:42:13.316Z,19.97
2022-08-16T01:43:12.147Z,19.97
2022-08-16T01:44:12.167Z,19.97
2022-08-16T01:45:13.556Z,19.97
2022-08-16T01:46:37.457Z,19.98
2022-08-16T01:47:13.201Z,19.98
2022-08-16T01:48:19.183Z,19.99
2022-08-16T01:49:13.114Z,19.99
2022-08-16T01:50:42.305Z,19.99
2022-08-16T01:51:17.047Z,19.99
2022-08-16T01:52:29.208Z,19.99
2022-08-16T01:53:13.046Z,19.99
2022-08-16T01:54:13.257Z,19.99
2022-08-16T01:55:12.462Z,19.99
2022-08-16T01:56:23.189Z,19.99
2022-08-16T01:57:13.012Z,19.98
2022-08-16T01:58:12.298Z,19.98
2022-08-16T01:59:15.769Z,19.98
2022-08-16T02:00:19.271Z,19.98
2022-08-16T02:01:12.995Z,19.98
2022-08-16T02:02:26.866Z,19.97
2022-08-16T02:03:12.931Z,19.96
2022-08-16T02:04:11.923Z,19.96
2022-08-16T02:05:11.915Z,19.95
2022-08-16T02:06:11.898Z,19.95
2022-08-16T02:07:12.037Z,19.94
2022-08-16T02:08:33.036Z,19.93
2022-08-16T02:09:12.868Z,19.93
2022-08-16T02:10:11.861Z,19.92
2022-08-16T02:11:11.839Z,19.91
2022-08-16T02:12:50.340Z,19.90
2022-08-16T02:13:12.824Z,19.89
2022-08-16T02:14:18.023Z,19.88
2022-08-16T02:15:12.836Z,19.86
2022-08-16T02:16:18.196Z,19.85
2022-08-16T02:17:12.951Z,19.84
2022-08-16T02:18:12.666Z,19.83
2022-08-16T02:19:15.807Z,19.81
2022-08-16T02:20:12.025Z,19.80
2022-08-16T02:21:11.740Z,19.78
2022-08-16T02:22:33.647Z,19.76
2022-08-16T02:23:12.716Z,19.75
2022-08-16T02:24:31.351Z,19.73
2022-08-16T02:25:14.638Z,19.72
2022-08-16T02:26:11.684Z,19.71
2022-08-16T02:27:12.879Z,19.70
2022-08-16T02:28:11.661Z,19.68
2022-08-16T02:29:13.007Z,19.68
2022-08-16T02:30:11.631Z,19.67
2022-08-16T02:31:12.632Z,19.67
2022-08-16T02:32:50.480Z,19.67
2022-08-16T02:33:12.761Z,19.67
2022-08-16T02:34:12.085Z,19.67
2022-08-16T02:35:11.615Z,19.67
2022-08-16T02:36:14.176Z,19.67
2022-08-16T02:37:11.560Z,19.68
2022-08-16T02:38:11.720Z,19.68
2022-08-16T02:39:11.540Z,19.69
2022-08-16T02:40:11.544Z,19.70
2022-08-16T02:41:12.285Z,19.71
2022-08-16T02:42:11.523Z,19.72
2022-08-16T02:43:11.499Z,19.73
2022-08-16T02:44:13.886Z,19.73
2022-08-16T02:45:11.476Z,19.74
2022-08-16T02:46:11.464Z,19.74
2022-08-16T02:47:11.451Z,19.73
2022-08-16T02:48:29.848Z,19.73
2022-08-16T02:49:12.613Z,19.72
2022-08-16T02:50:55.402Z,19.71
2022-08-16T02:51:12.418Z,19.70
2022-08-16T02:52:11.395Z,19.70
2022-08-16T02:53:12.391Z,19.69
2022-08-16T02:54:11.383Z,19.69
2022-08-16T02:55:11.583Z,19.68
2022-08-16T02:56:11.370Z,19.68
2022-08-16T02:57:11.360Z,19.68
2022-08-16T02:58:11.383Z,19.68
2022-08-16T02:59:14.486Z,19.68
2022-08-16T03:00:33.754Z,19.69
2022-08-16T03:01:17.021Z,19.69
2022-08-16T03:02:12.353Z,19.69
2022-08-16T03:03:11.293Z,19.69
2022-08-16T03:04:41.084Z,19.68
2022-08-16T03:05:12.262Z,19.68
2022-08-16T03:06:39.112Z,19.68
2022-08-16T03:07:12.464Z,19.68
2022-08-16T03:08:52.259Z,19.68
2022-08-16T03:09:14.908Z,19.68
2022-08-16T03:10:11.242Z,19.67
2022-08-16T03:11:16.766Z,19.67
2022-08-16T03:12:16.486Z,19.66
2022-08-16T03:13:12.881Z,19.65
2022-08-16T03:14:11.587Z,19.65
2022-08-16T03:15:11.153Z,19.65
2022-08-16T03:16:32.861Z,19.64
2022-08-16T03:17:12.129Z,19.64
2022-08-16T03:18:18.593Z,19.64
2022-08-16T03:19:12.115Z,19.64
2022-08-16T03:20:11.861Z,19.64
2022-08-16T03:21:11.095Z,19.63
2022-08-16T03:22:11.080Z,19.62
2022-08-16T03:23:12.222Z,19.61
2022-08-16T03:24:29.107Z,19.60
2022-08-16T03:25:12.094Z,19.60
2022-08-16T03:26:11.085Z,19.60
2022-08-16T03:27:11.344Z,19.60
2022-08-16T03:28:11.046Z,19.60
2022-08-16T03:29:11.015Z,19.59
2022-08-16T03:30:16.140Z,19.59
2022-08-16T03:31:11.988Z,19.58
2022-08-16T03:32:10.985Z,19.57
2022-08-16T03:33:11.128Z,19.56
2022-08-16T03:34:10.945Z,19.55
2022-08-16T03:35:10.938Z,19.55
2022-08-16T03:36:30.077Z,19.54
2022-08-16T03:37:11.924Z,19.54
2022-08-16T03:38:32.731Z,19.54
2022-08-16T03:39:14.839Z,19.54
2022-08-16T03:40:10.920Z,19.53
2022-08-16T03:41:24.364Z,19.52
2022-08-16T03:42:11.872Z,19.51
2022-08-16T03:43:20.187Z,19.50
2022-08-16T03:44:11.900Z,19.49
2022-08-16T03:45:11.996Z,19.48
2022-08-16T03:46:10.821Z,19.46
2022-08-16T03:47:10.820Z,19.45
2022-08-16T03:48:10.810Z,19.44
2022-08-16T03:49:10.820Z,19.42
2022-08-16T03:50:25.341Z,19.40
2022-08-16T03:51:12.116Z,19.38
2022-08-16T03:52:10.766Z,19.36
2022-08-16T03:53:10.751Z,19.34
2022-08-16T03:54:12.206Z,19.33
2022-08-16T03:55:14.811Z,19.32
2022-08-16T03:56:19.695Z,19.31
2022-08-16T03:57:11.706Z,19.31
2022-08-16T03:58:10.710Z,19.30
2022-08-16T03:59:10.685Z,19.30
2022-08-16T04:00:10.673Z,19.29
2022-08-16T04:01:11.895Z,19.29
2022-08-16T04:02:22.705Z,19.28
2022-08-16T04:03:11.643Z,19.28
2022-08-16T04:04:10.628Z,19.27
2022-08-16T04:05:11.639Z,19.26
2022-08-16T04:06:10.874Z,19.26
2022-08-16T04:07:10.603Z,19.26
2022-08-16T04:08:22.915Z,19.26
2022-08-16T04:09:12.552Z,19.25
2022-08-16T04:10:35.624Z,19.25
2022-08-16T04:11:11.559Z,19.25
2022-08-16T04:12:53.936Z,19.24
2022-08-16T04:13:20.725Z,19.24
2022-08-16T04:14:33.418Z,19.24
2022-08-16T04:15:11.528Z,19.24
2022-08-16T04:16:27.401Z,19.23
2022-08-16T04:17:11.479Z,19.22
2022-08-16T04:18:10.629Z,19.22
2022-08-16T04:19:10.469Z,19.22
2022-08-16T04:20:23.552Z,19.21
2022-08-16T04:21:11.460Z,19.21
2022-08-16T04:22:10.516Z,19.21
2022-08-16T04:23:10.591Z,19.21
2022-08-16T04:24:10.424Z,19.20
2022-08-16T04:25:10.401Z,19.20
2022-08-16T04:26:16.932Z,19.19
2022-08-16T04:27:11.385Z,19.19
2022-08-16T04:28:51.688Z,19.19
2022-08-16T04:29:21.707Z,19.19
2022-08-16T04:30:11.560Z,19.19
2022-08-16T04:31:11.341Z,19.20
2022-08-16T04:32:10.353Z,19.21
2022-08-16T04:33:10.318Z,19.22
2022-08-16T04:34:10.311Z,19.22
2022-08-16T04:35:15.362Z,19.23
2022-08-16T04:36:11.461Z,19.23
2022-08-16T04:37:11.273Z,19.24
2022-08-16T04:38:11.110Z,19.24
2022-08-16T04:39:11.259Z,19.25
2022-08-16T04:40:11.290Z,19.26
2022-08-16T04:41:11.255Z,19.26
2022-08-16T04:42:11.364Z,19.26
2022-08-16T04:43:10.307Z,19.26
2022-08-16T04:44:33.005Z,19.25
2022-08-16T04:45:11.188Z,19.24
2022-08-16T04:46:19.881Z,19.23
2022-08-16T04:47:21.486Z,19.22
2022-08-16T04:48:11.173Z,19.22
2022-08-16T04:49:11.155Z,19.21
2022-08-16T04:50:10.203Z,19.22
2022-08-16T04:51:12.088Z,19.22
2022-08-16T04:52:33.232Z,19.23
2022-08-16T04:53:11.266Z,19.23
2022-08-16T04:54:10.109Z,19.24
2022-08-16T04:55:11.775Z,19.24
2022-08-16T04:56:11.276Z,19.25
2022-08-16T04:57:10.083Z,19.26
2022-08-16T04:58:43.670Z,19.26
2022-08-16T04:59:11.203Z,19.26
2022-08-16T05:00:30.464Z,19.26
2022-08-16T05:01:11.183Z,19.26
2022-08-16T05:02:42.044Z,19.26
2022-08-16T05:03:11.066Z,19.26
2022-08-16T05:04:19.515Z,19.26
2022-08-16T05:05:17.288Z,19.25
2022-08-16T05:06:10.966Z,19.26
2022-08-16T05:07:14.571Z,19.26
2022-08-16T05:08:29.400Z,19.27
2022-08-16T05:09:10.930Z,19.28
2022-08-16T05:10:20.071Z,19.29
2022-08-16T05:11:11.057Z,19.31
2022-08-16T05:12:10.860Z,19.32
2022-08-16T05:13:09.892Z,19.33
2022-08-16T05:14:11.111Z,19.34
2022-08-16T05:15:10.904Z,19.34
2022-08-16T05:16:09.873Z,19.35
2022-08-16T05:17:09.844Z,19.35
2022-08-16T05:18:09.836Z,19.35
2022-08-16T05:19:11.635Z,19.36
2022-08-16T05:20:38.694Z,19.37
2022-08-16T05:21:11.417Z,19.39
2022-08-16T05:22:18.264Z,19.41
2022-08-16T05:23:11.406Z,19.43
2022-08-16T05:24:09.769Z,19.44
2022-08-16T05:25:09.907Z,19.46
2022-08-16T05:26:19.932Z,19.47
2022-08-16T05:27:11.349Z,19.49
2022-08-16T05:28:09.733Z,19.50
2022-08-16T05:29:11.138Z,19.52
2022-08-16T05:30:35.506Z,19.54
2022-08-16T05:31:10.697Z,19.56
2022-08-16T05:32:32.787Z,19.58
2022-08-16T05:33:16.536Z,19.61
2022-08-16T05:34:19.717Z,19.64
2022-08-16T05:35:10.878Z,19.67
2022-08-16T05:36:14.269Z,19.70
2022-08-16T05:37:09.627Z,19.74
2022-08-16T05:38:32.808Z,19.77
2022-08-16T05:39:10.608Z,19.81
2022-08-16T05:40:09.618Z,19.86
2022-08-16T05:41:09.781Z,19.90
2022-08-16T05:42:09.575Z,19.95
2022-08-16T05:43:11.978Z,19.99
2022-08-16T05:44:23.509Z,20.03
2022-08-16T05:45:10.530Z,20.06
2022-08-16T05:46:29.798Z,20.10
2022-08-16T05:47:10.679Z,20.13
2022-08-16T05:48:09.508Z,20.16
2022-08-16T05:49:09.843Z,20.20
2022-08-16T05:50:09.509Z,20.23
2022-08-16T05:51:10.479Z,20.25
2022-08-16T05:52:11.146Z,20.27
2022-08-16T05:53:09.908Z,20.28
2022-08-16T05:54:09.752Z,20.30
2022-08-16T05:55:09.441Z,20.33
2022-08-16T05:56:09.490Z,20.36
2022-08-16T05:57:09.422Z,20.39
2022-08-16T05:58:09.407Z,20.42
2022-08-16T05:59:10.827Z,20.46
2022-08-16T06:00:09.835Z,20.49
2022-08-16T06:01:09.414Z,20.52
2022-08-16T06:02:09.383Z,20.56
2022-08-16T06:03:12.943Z,20.59
2022-08-16T06:04:13.477Z,20.62
2022-08-16T06:05:10.793Z,20.65
2022-08-16T06:06:09.322Z,20.69
2022-08-16T06:07:24.896Z,20.71
2022-08-16T06:08:10.293Z,20.74
2022-08-16T06:09:10.290Z,20.77
2022-08-16T06:10:09.713Z,20.81
2022-08-16T06:11:10.124Z,20.84
2022-08-16T06:12:09.256Z,20.88
2022-08-16T06:13:09.241Z,20.92
2022-08-16T06:14:09.241Z,20.95
2022-08-16T06:15:09.953Z,20.98
2022-08-16T06:16:09.220Z,21.01
2022-08-16T06:17:10.423Z,21.04
2022-08-16T06:18:09.189Z,21.07
2022-08-16T06:19:09.182Z,21.09
2022-08-16T06:20:09.171Z,21.12
2022-08-16T06:21:09.150Z,21.14
2022-08-16T06:22:09.172Z,21.16
2022-08-16T06:23:17.005Z,21.18
2022-08-16T06:24:53.752Z,21.20
2022-08-16T06:25:10.126Z,21.21
2022-08-16T06:26:09.117Z,21.23
2022-08-16T06:27:09.090Z,21.25
2022-08-16T06:28:09.760Z,21.28
2022-08-16T06:29:09.071Z,21.30
2022-08-16T06:30:09.065Z,21.32
2022-08-16T06:31:11.900Z,21.34
2022-08-16T06:32:09.045Z,21.36
2022-08-16T06:33:12.248Z,21.38
2022-08-16T06:34:55.703Z,21.40
2022-08-16T06:35:10.012Z,21.42
2022-08-16T06:36:09.026Z,21.44
2022-08-16T06:37:08.973Z,21.46
2022-08-16T06:38:32.898Z,21.48
2022-08-16T06:39:10.332Z,21.51
2022-08-16T06:40:12.747Z,21.54
2022-08-16T06:41:13.695Z,21.57
2022-08-16T06:42:09.927Z,21.60
2022-08-16T06:43:08.912Z,21.63
2022-08-16T06:44:09.086Z,21.66
2022-08-16T06:45:09.898Z,21.69
2022-08-16T06:46:09.868Z,21.72
2022-08-16T06:47:08.878Z,21.76
2022-08-16T06:48:08.872Z,21.79
2022-08-16T06:49:10.802Z,21.83
2022-08-16T06:50:09.016Z,21.86
2022-08-16T06:51:09.852Z,21.90
2022-08-16T06:52:58.119Z,21.93
2022-08-16T06:53:10.141Z,21.96
2022-08-16T06:54:08.806Z,22.00
2022-08-16T06:55:13.134Z,22.04
2022-08-16T06:56:14.661Z,22.08
2022-08-16T06:57:16.483Z,22.11
2022-08-16T06:58:21.669Z,22.15
2022-08-16T06:59:10.264Z,22.18
2022-08-16T07:00:10.059Z,22.22
2022-08-16T07:01:15.021Z,22.25
2022-08-16T07:02:33.411Z,22.29
2022-08-16T07:03:26.934Z,22.33
2022-08-16T07:04:12.030Z,22.36
2022-08-16T07:05:14.857Z,22.40
2022-08-16T07:06:09.678Z,22.43
2022-08-16T07:07:09.895Z,22.46
2022-08-16T07:08:08.660Z,22.50
2022-08-16T07:09:09.722Z,22.54
2022-08-16T07:10:08.999Z,22.59
2022-08-16T07:11:08.989Z,22.63
2022-08-16T07:12:08.621Z,22.68
2022-08-16T07:13:12.126Z,22.72
2022-08-16T07:14:25.004Z,22.76
2022-08-16T07:15:09.793Z,22.81
2022-08-16T07:16:09.574Z,22.86
2022-08-16T07:17:12.771Z,22.90
2022-08-16T07:18:08.558Z,22.94
2022-08-16T07:19:08.541Z,22.98
2022-08-16T07:20:35.031Z,23.02
2022-08-16T07:21:09.753Z,23.05
2022-08-16T07:22:37.083Z,23.09
2022-08-16T07:23:13.348Z,23.13
2022-08-16T07:24:08.491Z,23.17
2022-08-16T07:25:08.487Z,23.22
2022-08-16T07:26:08.467Z,23.28
2022-08-16T07:27:08.775Z,23.33
2022-08-16T07:28:11.853Z,23.39
2022-08-16T07:29:08.437Z,23.44
2022-08-16T07:30:45.055Z,23.49
2022-08-16T07:31:12.960Z,23.53
2022-08-16T07:32:08.412Z,23.57
2022-08-16T07:33:08.567Z,23.61
2022-08-16T07:34:10.241Z,23.65
2022-08-16T07:35:08.347Z,23.69
2022-08-16T07:36:09.717Z,23.73
2022-08-16T07:37:08.336Z,23.77
2022-08-16T07:38:08.328Z,23.81
2022-08-16T07:39:08.493Z,23.85
2022-08-16T07:40:11.301Z,23.89
2022-08-16T07:41:10.107Z,23.94
2022-08-16T07:42:08.298Z,23.99
2022-08-16T07:43:08.267Z,24.03
2022-08-16T07:44:16.382Z,24.07
2022-08-16T07:45:10.183Z,24.11
2022-08-16T07:46:38.630Z,24.16
2022-08-16T07:47:09.218Z,24.22
2022-08-16T07:48:11.585Z,24.28
2022-08-16T07:49:11.268Z,24.34
2022-08-16T07:50:08.369Z,24.39
2022-08-16T07:51:09.335Z,24.44
2022-08-16T07:52:19.063Z,24.48
2022-08-16T07:53:09.182Z,24.51
2022-08-16T07:54:10.008Z,24.53
2022-08-16T07:55:08.138Z,24.54
2022-08-16T07:56:08.280Z,24.56
2022-08-16T07:57:08.111Z,24.59
2022-08-16T07:58:08.118Z,24.63
2022-08-16T07:59:09.099Z,24.66
2022-08-16T08:00:08.085Z,24.70
2022-08-16T08:01:10.834Z,24.74
2022-08-16T08:02:12.134Z,24.80
2022-08-16T08:03:08.060Z,24.85
2022-08-16T08:04:08.049Z,24.92
2022-08-16T08:05:09.030Z,25.01
2022-08-16T08:06:10.386Z,25.09
2022-08-16T08:07:09.030Z,25.15
2022-08-16T08:08:11.856Z,25.21
2022-08-16T08:09:08.990Z,25.25
2022-08-16T08:10:11.078Z,25.29
2022-08-16T08:11:09.098Z,25.32
2022-08-16T08:12:08.131Z,25.34
2022-08-16T08:13:08.964Z,25.37
2022-08-16T08:14:07.948Z,25.41
2022-08-16T08:15:09.793Z,25.46
2022-08-16T08:16:07.910Z,25.50
2022-08-16T08:17:09.054Z,25.55
2022-08-16T08:18:30.329Z,25.58
2022-08-16T08:19:08.872Z,25.61
2022-08-16T08:20:07.862Z,25.64
2022-08-16T08:21:07.866Z,25.67
2022-08-16T08:22:07.841Z,25.71
2022-08-16T08:23:07.983Z,25.75
2022-08-16T08:24:09.429Z,25.78
2022-08-16T08:25:07.803Z,25.81
2022-08-16T08:26:10.714Z,25.86
2022-08-16T08:27:08.792Z,25.91
2022-08-16T08:28:11.101Z,25.96
2022-08-16T08:29:08.641Z,26.00
2022-08-16T08:30:49.355Z,26.03
2022-08-16T08:31:08.741Z,26.05
2022-08-16T08:32:57.426Z,26.08
2022-08-16T08:33:08.994Z,26.10
2022-08-16T08:34:07.967Z,26.14
2022-08-16T08:35:07.694Z,26.17
2022-08-16T08:36:07.696Z,26.20
2022-08-16T08:37:07.695Z,26.22
2022-08-16T08:38:07.669Z,26.26
2022-08-16T08:39:12.913Z,26.31
2022-08-16T08:40:08.859Z,26.38
2022-08-16T08:41:07.696Z,26.47
2022-08-16T08:42:07.622Z,26.58
2022-08-16T08:43:12.430Z,26.67
2022-08-16T08:44:28.426Z,26.73
2022-08-16T08:45:13.757Z,26.75
2022-08-16T08:46:17.848Z,26.76
2022-08-16T08:47:12.083Z,26.77
2022-08-16T08:48:07.568Z,26.78
2022-08-16T08:49:07.719Z,26.80
2022-08-16T08:50:07.552Z,26.82
2022-08-16T08:51:09.030Z,26.85
2022-08-16T08:52:08.037Z,26.89
2022-08-16T08:53:07.505Z,26.92
2022-08-16T08:54:09.504Z,26.94
2022-08-16T08:55:09.334Z,26.95
2022-08-16T08:56:23.529Z,26.95
2022-08-16T08:57:08.626Z,26.93
2022-08-16T08:58:07.459Z,26.90
2022-08-16T08:59:13.629Z,26.87
2022-08-16T09:00:13.525Z,26.86
2022-08-16T09:01:09.472Z,26.85
2022-08-16T09:02:07.481Z,26.85
2022-08-16T09:03:07.854Z,26.86
2022-08-16T09:04:07.469Z,26.88
2022-08-16T09:05:15.258Z,26.92
2022-08-16T09:06:08.359Z,26.96
2022-08-16T09:07:07.358Z,26.99
2022-08-16T09:08:09.094Z,27.03
2022-08-16T09:09:07.332Z,27.06
2022-08-16T09:10:20.729Z,27.09
2022-08-16T09:11:08.321Z,27.10
2022-08-16T09:12:07.306Z,27.10
2022-08-16T09:13:08.087Z,27.11
2022-08-16T09:14:07.538Z,27.12
2022-08-16T09:15:07.266Z,27.15
2022-08-16T09:16:07.269Z,27.17
2022-08-16T09:17:11.743Z,27.18
2022-08-16T09:18:24.998Z,27.19
2022-08-16T09:20:07.219Z,27.25
2022-08-16T09:21:09.446Z,27.29
2022-08-16T09:22:07.198Z,27.32
2022-08-16T09:23:08.187Z,27.34
2022-08-16T09:24:10.114Z,27.35
2022-08-16T09:25:09.949Z,27.35
2022-08-16T09:26:45.001Z,27.37
2022-08-16T09:27:08.138Z,27.38
2022-08-16T09:28:09.317Z,27.39
2022-08-16T09:29:15.222Z,27.40
2022-08-16T09:30:34.611Z,27.43
2022-08-16T09:31:08.094Z,27.48
2022-08-16T09:32:07.646Z,27.53
2022-08-16T09:33:07.627Z,27.56
2022-08-16T09:34:07.060Z,27.59
2022-08-16T09:35:07.045Z,27.60
2022-08-16T09:36:07.207Z,27.62
2022-08-16T09:37:17.688Z,27.65
2022-08-16T09:38:08.417Z,27.69
2022-08-16T09:39:07.002Z,27.72
2022-08-16T09:40:32.648Z,27.74
2022-08-16T09:41:14.671Z,27.75
2022-08-16T09:42:07.974Z,27.75
2022-08-16T09:43:07.011Z,27.76
2022-08-16T09:45:10.780Z,27.76
2022-08-16T09:45:11.908Z,27.75
2022-08-16T09:46:45.306Z,27.72
2022-08-16T09:47:10.195Z,27.70
2022-08-16T09:48:06.912Z,27.69
2022-08-16T09:49:08.568Z,27.70
2022-08-16T09:50:11.975Z,27.71
2022-08-16T09:51:07.871Z,27.71
2022-08-16T09:52:06.870Z,27.71
2022-08-16T09:53:07.012Z,27.70
2022-08-16T09:54:09.582Z,27.69
2022-08-16T09:55:06.823Z,27.67
2022-08-16T09:56:11.367Z,27.65
2022-08-16T09:57:06.810Z,27.62
2022-08-16T09:58:08.012Z,27.61
2022-08-16T09:59:07.789Z,27.62
2022-08-16T10:00:42.605Z,27.63
2022-08-16T10:01:08.565Z,27.63
2022-08-16T10:02:26.621Z,27.64
2022-08-16T10:03:09.122Z,27.65
2022-08-16T10:04:13.051Z,27.65
2022-08-16T10:05:07.785Z,27.65
2022-08-16T10:06:06.711Z,27.65
2022-08-16T10:07:15.051Z,27.64
2022-08-16T10:08:26.069Z,27.64
2022-08-16T10:09:10.624Z,27.63
2022-08-16T10:10:11.197Z,27.62
2022-08-16T10:11:09.454Z,27.62
2022-08-16T10:12:11.704Z,27.65
2022-08-16T10:13:07.646Z,27.69
2022-08-16T10:14:06.625Z,27.72
2022-08-16T10:15:06.807Z,27.74
2022-08-16T10:16:06.659Z,27.75
2022-08-16T10:17:06.595Z,27.75
2022-08-16T10:18:41.253Z,27.74
2022-08-16T10:19:07.921Z,27.75
2022-08-16T10:20:06.554Z,27.78
2022-08-16T10:21:06.724Z,27.82
2022-08-16T10:22:06.547Z,27.85
2022-08-16T10:23:07.161Z,27.88
2022-08-16T10:24:06.516Z,27.90
2022-08-16T10:25:06.507Z,27.92
2022-08-16T10:27:20.626Z,27.92
2022-08-16T10:27:26.489Z,27.92
2022-08-16T10:28:28.193Z,27.90
2022-08-16T10:29:07.475Z,27.89
2022-08-16T10:30:25.040Z,27.90
2022-08-16T10:31:07.437Z,27.91
2022-08-16T10:32:06.653Z,27.93
2022-08-16T10:33:06.423Z,27.94
2022-08-16T10:34:06.407Z,27.96
2022-08-16T10:35:07.415Z,27.97
2022-08-16T10:36:07.627Z,27.98
2022-08-16T10:37:06.380Z,27.98
2022-08-16T10:38:06.717Z,27.99
2022-08-16T10:39:08.594Z,27.98
2022-08-16T10:40:06.403Z,27.98
2022-08-16T10:41:07.446Z,27.97
2022-08-16T10:42:06.317Z,27.95
2022-08-16T10:43:08.256Z,27.95
2022-08-16T10:44:09.372Z,27.94
2022-08-16T10:45:06.294Z,27.93
2022-08-16T10:46:39.322Z,27.91
2022-08-16T10:47:07.280Z,27.89
2022-08-16T10:48:06.257Z,27.87
2022-08-16T10:49:07.251Z,27.85
2022-08-16T10:50:06.410Z,27.85
2022-08-16T10:51:07.228Z,27.86
2022-08-16T10:52:18.102Z,27.88
2022-08-16T10:53:07.499Z,27.91
2022-08-16T10:54:06.188Z,27.93
2022-08-16T10:56:52.217Z,27.92
2022-08-16T10:57:07.163Z,27.91
2022-08-16T10:58:11.409Z,27.89
2022-08-16T11:00:21.332Z,27.84
2022-08-16T11:02:59.535Z,27.81
2022-08-16T11:03:42.116Z,27.79
2022-08-16T11:05:04.772Z,27.77
2022-08-16T11:05:08.278Z,27.76
2022-08-16T11:06:07.528Z,27.78
2022-08-16T11:07:07.926Z,27.82
2022-08-16T11:08:07.051Z,27.87
2022-08-16T11:09:25.532Z,27.90
2022-08-16T11:11:04.926Z,27.91
2022-08-16T11:11:11.672Z,27.92
2022-08-16T11:12:13.904Z,27.93
2022-08-16T11:14:11.269Z,27.94
2022-08-16T11:15:13.596Z,27.94
2022-08-16T11:17:11.011Z,27.96
2022-08-16T11:19:03.589Z,27.96
2022-08-16T11:19:12.190Z,27.95
2022-08-16T11:21:06.911Z,27.92
2022-08-16T11:22:39.085Z,27.91
2022-08-16T11:23:07.052Z,27.90
2022-08-16T11:24:39.722Z,27.91
2022-08-16T11:25:57.907Z,27.92
2022-08-16T11:26:20.627Z,27.94
2022-08-16T11:27:23.434Z,27.95
2022-08-16T11:28:06.835Z,27.96
2022-08-16T11:29:14.229Z,27.97
2022-08-16T11:30:09.143Z,27.96
2022-08-16T11:31:06.802Z,27.95
2022-08-16T11:32:05.782Z,27.93
2022-08-16T11:33:05.778Z,27.91
2022-08-16T11:34:05.775Z,27.88
2022-08-16T11:35:10.407Z,27.87
2022-08-16T11:36:22.496Z,27.87
2022-08-16T11:37:06.732Z,27.88
2022-08-16T11:38:23.499Z,27.91
2022-08-16T11:39:06.724Z,27.94
2022-08-16T11:40:05.811Z,28.00
2022-08-16T11:41:05.859Z,28.07
2022-08-16T11:42:07.673Z,28.15
2022-08-16T11:43:06.670Z,28.23
2022-08-16T11:44:05.656Z,28.28
2022-08-16T11:45:05.644Z,28.31
2022-08-16T11:46:43.327Z,28.32
2022-08-16T11:47:06.965Z,28.33
2022-08-16T11:48:05.622Z,28.34
2022-08-16T11:49:09.881Z,28.33
2022-08-16T11:50:06.610Z,28.31
2022-08-16T11:51:05.625Z,28.29
2022-08-16T11:52:05.573Z,28.25
2022-08-16T11:53:05.736Z,28.20
2022-08-16T11:54:05.559Z,28.16
2022-08-16T11:55:06.585Z,28.13
2022-08-16T11:56:06.264Z,28.11
2022-08-16T11:57:09.326Z,28.11
2022-08-16T11:58:05.505Z,28.12
2022-08-16T11:59:05.817Z,28.12
2022-08-16T12:00:05.491Z,28.11
2022-08-16T12:01:05.476Z,28.10
2022-08-16T12:02:32.230Z,28.08
2022-08-16T12:03:06.456Z,28.06
2022-08-16T12:04:05.498Z,28.05
2022-08-16T12:05:05.602Z,28.03
2022-08-16T12:06:05.435Z,28.01
2022-08-16T12:07:05.415Z,28.01
2022-08-16T12:08:05.561Z,28.00
2022-08-16T12:09:05.399Z,28.00
2022-08-16T12:10:05.627Z,28.00
2022-08-16T12:11:05.367Z,28.00
2022-08-16T12:12:05.360Z,27.99
2022-08-16T12:13:05.348Z,27.98
2022-08-16T12:14:05.338Z,27.96
2022-08-16T12:15:05.337Z,27.94
2022-08-16T12:16:05.497Z,27.92
2022-08-16T12:17:05.308Z,27.90
2022-08-16T12:18:05.303Z,27.89
2022-08-16T12:19:05.338Z,27.88
2022-08-16T12:20:05.278Z,27.88
2022-08-16T12:21:05.270Z,27.88
2022-08-16T12:22:18.677Z,27.89
2022-08-16T12:23:06.240Z,27.89
2022-08-16T12:24:05.235Z,27.90
2022-08-16T12:25:05.220Z,27.91
2022-08-16T12:26:10.200Z,27.92
2022-08-16T12:27:06.370Z,27.92
2022-08-16T12:28:05.199Z,27.92
2022-08-16T12:29:05.176Z,27.91
2022-08-16T12:30:05.172Z,27.92
2022-08-16T12:31:05.165Z,27.93
2022-08-16T12:32:37.979Z,27.93
2022-08-16T12:33:06.654Z,27.93
2022-08-16T12:34:05.126Z,27.93
2022-08-16T12:35:05.115Z,27.97
2022-08-16T12:36:05.113Z,28.02
2022-08-16T12:37:10.400Z,28.06
2022-08-16T12:38:38.321Z,28.10
2022-08-16T12:39:06.243Z,28.14
2022-08-16T12:40:05.156Z,28.16
2022-08-16T12:41:05.050Z,28.17
2022-08-16T12:42:05.039Z,28.17
2022-08-16T12:43:05.047Z,28.16
2022-08-16T12:44:05.023Z,28.16
2022-08-16T12:45:05.203Z,28.15
2022-08-16T12:46:05.049Z,28.13
2022-08-16T12:47:05.007Z,28.11
2022-08-16T12:48:29.732Z,28.10
2022-08-16T12:49:05.964Z,28.09
2022-08-16T12:50:04.953Z,28.07
2022-08-16T12:51:05.189Z,28.05
2022-08-16T12:52:05.934Z,28.02
2022-08-16T12:53:04.933Z,28.00
2022-08-16T12:54:04.943Z,27.97
2022-08-16T12:55:04.968Z,27.95
2022-08-16T12:56:04.897Z,27.93
2022-08-16T12:57:05.066Z,27.91
2022-08-16T12:58:05.870Z,27.90
2022-08-16T12:59:05.872Z,27.90